Halstad, Minnesota
Current Conditions -  °F | °C
As of 6:53 PM on Monday 24 Nov 2014 (Local Time) from KFAR Reporting Station
Clear Clear  
Wind Chill:   Ceiling: Unl
Heat Index: 13°   Visibility: 10mi
Dew Point:   Wind: 8mph
Humidity: 77%   Direction: 330°NNW
Pressure: 29.97"   Gusts: NA
Location:  47.35°N, 96.83°W
Report Text: KFAR 250053Z 33007KT 10SM CLR M11/M14 A2997 RMK AO2 SLP169 T11061139
Loading
Personal Weather Stations






























Interactive Weather Map New forecast layout! Learn more

10-Day Weather Forecast

Advertisements
Track Severe Weather on mobile